Terminal Aerodrome Forecast
Issued by NWS Cleveland, OH

Home | Current Version | Previous Version | Graphics & Text | Print | Product List | Glossary On
Versions: 1 2 3 4 5 6 7 8 9 10 11 12 13 14 15 16 17 18 19 20 21
801
FTUS41 KCLE 202233 AAA
TAFTOL
TAF AMD
KTOL 202233Z 2023/2118 22010KT P6SM BKN250
     FM210130 22007KT P6SM OVC015
     FM210800 20005KT 3SM -DZ BR OVC008
     FM211400 20005KT 2SM -DZ BR OVC004=

USA.gov is the U.S. government's official web portal to all federal, state and local government web resources and services.